This is the latest recevied weather packets stored in our database for station/object IZ2OSD. If no packets are shown the sender has not sent any weather packets the latest 10 day(s).
| Time | Temp. | Humidity | Pressure | Rain* | Wind** | Luminosity | Snow |
|---|---|---|---|---|---|---|---|
| 1778010704 | 12.78° C | 98% | 1011.4 hPa | 0.25 mm | - | - | - |
| 1778007048 | 12.78° C | 99% | 1011.1 hPa | 0 mm | - | - | - |
| 1778003420 | 12.78° C | 99% | 1010.9 hPa | 0 mm | - | - | - |
| 1778002211 | 12.78° C | 99% | 1011.1 hPa | 0 mm | - | - | - |
| 1777997077 | 12.78° C | 98% | 1011.2 hPa | 0.25 mm | - | - | - |
| 1777992277 | 12.78° C | 97% | 1011.4 hPa | 0.25 mm | - | - | - |
| 1777988624 | 13.33° C | 94% | 1011.8 hPa | 0 mm | - | - | - |
| 1777973469 | 12.78° C | 92% | 1012.2 hPa | 0.25 mm | - | - | - |
| 1777971658 | 12.22° C | 91% | 1012 hPa | 0 mm | - | - | - |
| 1777969231 | 11.67° C | 95% | 1011.9 hPa | 0.25 mm | - | - | - |
| 1777968022 | 12.22° C | 97% | 1011.8 hPa | 1.27 mm | - | - | - |
| 1777966817 | 12.22° C | 97% | 1011.5 hPa | 2.29 mm | - | - | - |
| 1777965610 | 12.78° C | 96% | 1011.8 hPa | 3.05 mm | - | - | - |
| 1777963195 | 12.78° C | 95% | 1011.7 hPa | 3.05 mm | - | - | - |
| 1777958350 | 14.44° C | 75% | 1011.1 hPa | 0 mm | - | - | - |
| 1777955326 | 14.44° C | 73% | 1010.8 hPa | 0 mm | - | - | - |
| 1777950490 | 15° C | 70% | 1011.6 hPa | 0 mm | - | - | - |
| 1777943234 | 15.56° C | 65% | 1012.7 hPa | 0 mm | - | - | - |
| 1777942027 | 16.11° C | 66% | 1013.2 hPa | 0 mm | - | - | - |
| 1777940231 | 16.11° C | 69% | 1013.7 hPa | 0 mm | - | - | - |
| 1777934157 | 16.67° C | 65% | 1014.4 hPa | 0 mm | - | - | - |
| 1777933574 | 16.67° C | 64% | 1014.7 hPa | 0 mm | - | - | - |
| 1777926623 | 17.78° C | 51% | 1015.1 hPa | 0 mm | - | - | - |
| 1777926019 | 17.78° C | 49% | 1014.8 hPa | 0 mm | - | - | - |
| 1777924810 | 18.33° C | 49% | 1015.1 hPa | 0 mm | - | - | - |
* Rain latest hour (hover to see other rain measurements)
** Current wind speed in m/s (hover to see current wind gust speed)